This is the latest recevied weather packets stored in our database for station/object N6XE-13. If no packets are shown the sender has not sent any weather packets the latest 10 day(s).
| Time | Temp. | Humidity | Pressure | Rain* | Wind** | Luminosity | Snow |
|---|---|---|---|---|---|---|---|
| 1777674606 | 30° C | 48% | 1014.2 hPa | 0 mm | - | - | - |
| 1777672806 | 30° C | 45% | 1014.7 hPa | 0 mm | - | - | - |
| 1777671006 | 29.44° C | 45% | 1014.9 hPa | 0 mm | - | - | - |
| 1777669206 | 29.44° C | 45% | 1015 hPa | 0 mm | - | - | - |
| 1777667406 | 28.33° C | 46% | 1015.2 hPa | 0 mm | - | - | - |
| 1777665606 | 27.78° C | 48% | 1015.9 hPa | 0 mm | - | - | - |
| 1777663806 | 26.11° C | 52% | 1016.2 hPa | 0 mm | - | - | - |
| 1777660206 | 24.44° C | 52% | 1016.7 hPa | 0 mm | - | - | - |
| 1777658406 | 23.89° C | 54% | 1016.8 hPa | 0 mm | - | - | - |
| 1777656605 | 22.22° C | 59% | 1016.8 hPa | 0 mm | - | - | - |
| 1777654805 | 21.67° C | 62% | 1016.9 hPa | 0 mm | - | - | - |
| 1777653005 | 20° C | 66% | 1016.9 hPa | 0 mm | - | - | - |
| 1777651205 | 18.33° C | 71% | 1016.8 hPa | 0 mm | - | - | - |
| 1777649405 | 17.22° C | 74% | 1016.7 hPa | 0 mm | - | - | - |
| 1777647605 | 15° C | 83% | 1016.5 hPa | 0 mm | - | - | - |
| 1777645805 | 13.33° C | 88% | 1016.2 hPa | 0 mm | - | - | - |
| 1777644005 | 12.22° C | 93% | 1015.8 hPa | 0 mm | - | - | - |
| 1777642206 | 12.22° C | 92% | 1015.4 hPa | 0 mm | - | - | - |
| 1777640406 | 12.78° C | 89% | 1015.2 hPa | 0 mm | - | - | - |
| 1777638606 | 13.33° C | 87% | 1015.2 hPa | 0 mm | - | - | - |
| 1777636806 | 13.33° C | 86% | 1015.1 hPa | 0 mm | - | - | - |
| 1777635006 | 13.33° C | 86% | 1015.1 hPa | 0 mm | - | - | - |
| 1777633206 | 13.33° C | 85% | 1014.8 hPa | 0 mm | - | - | - |
| 1777631405 | 13.33° C | 85% | 1014.8 hPa | 0 mm | - | - | - |
| 1777629605 | 13.33° C | 85% | 1014.8 hPa | 0 mm | - | - | - |
* Rain latest hour (hover to see other rain measurements)
** Current wind speed in m/s (hover to see current wind gust speed)